Pedernales — WDC2721 — position and weather

sailwx.info

Track history (hours):
 
Tides and Currents Weather Stations Pressure Air Temp Water Temp Dewpoint Dewpoint Depression Visibility Wind Speed Wind Dir Waves Ship Positions

Pedernales

Owner: Kirby Inland Marine, LP, Houston, TX. More information available from US FCC via Universal Licensing System and Coast Guard Vessel Documentation Center.

Last reported at 2018-Jan-24 05:28 UTC. Time now 2018-Jan-24 05:50 UTC.
Position N 30°04' W 093°21'.

Length 114 m; draft 2.9 m.

Type: . MMSI: 366996790.

Date/timePositionNaut miles runAvg speedWind from/ knotsBaromVisibWave heightAir tempDewpointWater temp
2018-Jan-24 05:28N 30°04' W 093°21'0 0.0
2018-Jan-24 04:58N 30°04' W 093°21'0 0.0
2018-Jan-24 04:28N 30°04' W 093°21'0 0.0
2018-Jan-24 03:52N 30°04' W 093°21'0 0.0
2018-Jan-24 03:28N 30°04' W 093°21'0 0.0
2018-Jan-24 02:55N 30°04' W 093°21'0 0.0
2018-Jan-24 02:28N 30°04' W 093°21'0 0.0
2018-Jan-24 01:55N 30°04' W 093°21'0 0.0
2018-Jan-24 01:28N 30°04' W 093°21'0 0.3
2018-Jan-24 00:59N 30°04' W 093°21'0 0.0
2018-Jan-24 00:29N 30°04' W 093°21'0 0.0
2018-Jan-23 23:59N 30°04' W 093°21'0 0.0
2018-Jan-23 23:29N 30°04' W 093°21'0 0.0
2018-Jan-23 23:00N 30°04' W 093°21'0 0.3
2018-Jan-23 22:31N 30°04' W 093°21'0 0.1
2018-Jan-23 22:00N 30°04' W 093°21'0 0.2
2018-Jan-23 21:30N 30°04' W 093°21'0 0.2
2018-Jan-23 21:00N 30°04' W 093°21'0 0.0
2018-Jan-23 20:30N 30°04' W 093°21'0 0.0
2018-Jan-23 20:00N 30°04' W 093°21'1 1.4
2018-Jan-23 19:30N 30°04' W 093°21'2 3.4
2018-Jan-23 19:00N 30°06' W 093°20'2 3.8
2018-Jan-23 18:30N 30°07' W 093°20'2 4.1
2018-Jan-23 18:00N 30°09' W 093°20'1 2.9
2018-Jan-23 17:30N 30°11' W 093°19'0 0.7
2018-Jan-23 16:59N 30°11' W 093°19'0 0.0
2018-Jan-23 16:29N 30°11' W 093°19'0 0.0
2018-Jan-23 15:59N 30°11' W 093°19'0 0.0
2018-Jan-23 15:29N 30°11' W 093°19'0 0.0
2018-Jan-23 14:59N 30°11' W 093°19'0 0.0
2018-Jan-23 14:29N 30°11' W 093°19'0 0.0
2018-Jan-23 13:59N 30°11' W 093°19'0 0.0
2018-Jan-23 13:29N 30°11' W 093°19'0 0.0
2018-Jan-23 12:59N 30°11' W 093°19'0 0.0
2018-Jan-23 12:29N 30°11' W 093°19'0 0.0
2018-Jan-23 11:59N 30°11' W 093°19'0 0.0
2018-Jan-23 11:26N 30°11' W 093°19'0 0.0
2018-Jan-23 10:59N 30°11' W 093°19'0 0.0
2018-Jan-23 10:29N 30°11' W 093°19'0 0.0
2018-Jan-23 09:59N 30°11' W 093°19'0 0.0
2018-Jan-23 09:29N 30°11' W 093°19'0 0.0
2018-Jan-23 08:56N 30°11' W 093°19'0 0.0
2018-Jan-23 08:29N 30°11' W 093°19'0 0.0
2018-Jan-23 07:59N 30°11' W 093°19'0 0.0
2018-Jan-23 07:29N 30°11' W 093°19'0 0.0
2018-Jan-23 06:59N 30°11' W 093°19'0 0.0
2018-Jan-23 06:29N 30°11' W 093°19'0 0.0
2018-Jan-23 05:58N 30°11' W 093°19'0 0.0
2018-Jan-23 05:25N 30°11' W 093°19'0 0.0
2018-Jan-23 04:58N 30°11' W 093°19'0 0.0
2018-Jan-23 04:25N 30°11' W 093°19'0 0.0
2018-Jan-23 03:55N 30°11' W 093°19'0 0.0
2018-Jan-23 03:28N 30°11' W 093°19'0 0.0
2018-Jan-23 02:55N 30°11' W 093°19'0 0.0
2018-Jan-23 02:28N 30°11' W 093°19'0 0.0
2018-Jan-23 01:58N 30°11' W 093°19'0 0.0
2018-Jan-23 01:28N 30°11' W 093°19'0 0.0
2018-Jan-23 00:58N 30°11' W 093°19'0 0.0
2018-Jan-23 00:28N 30°11' W 093°19'0 0.0
2018-Jan-23 00:01N 30°11' W 093°19'0 0.0
2018-Jan-22 23:31N 30°11' W 093°19'0 0.0
2018-Jan-22 23:01N 30°11' W 093°19'0 0.0
2018-Jan-22 22:30N 30°11' W 093°19'1 2.1
2018-Jan-22 22:01N 30°10' W 093°19'3 5.7
2018-Jan-22 21:31N 30°07' W 093°20'3 5.6
2018-Jan-22 21:01N 30°05' W 093°20'1 2.8
2018-Jan-22 20:31N 30°04' W 093°21'0 0.1
2018-Jan-22 20:01N 30°04' W 093°21'0 0.0
2018-Jan-22 19:31N 30°04' W 093°21'0 0.1
2018-Jan-22 19:00N 30°04' W 093°21'1 2.3
2018-Jan-22 18:30N 30°04' W 093°20'2 3.0
2018-Jan-22 18:00N 30°06' W 093°20'2 4.8
2018-Jan-22 17:31N 30°08' W 093°20'2 4.4
2018-Jan-22 17:01N 30°10' W 093°19'1 1.7
2018-Jan-22 16:25N 30°11' W 093°19'0 0.0
2018-Jan-22 15:58N 30°11' W 093°19'0 0.0
2018-Jan-22 15:28N 30°11' W 093°19'0 0.0
2018-Jan-22 14:58N 30°11' W 093°19'0 0.0
2018-Jan-22 14:28N 30°11' W 093°19'0 0.0
2018-Jan-22 13:58N 30°11' W 093°19'0 0.0
2018-Jan-22 13:28N 30°11' W 093°19'0 0.0
2018-Jan-22 12:58N 30°11' W 093°19'0 0.0
2018-Jan-22 12:28N 30°11' W 093°19'0 0.0
2018-Jan-22 11:58N 30°11' W 093°19'0 0.0
2018-Jan-22 11:28N 30°11' W 093°19'0 0.0
2018-Jan-22 10:55N 30°11' W 093°19'0 0.0
2018-Jan-22 10:25N 30°11' W 093°19'0 0.0
2018-Jan-22 09:58N 30°11' W 093°19'0 0.0
2018-Jan-22 09:28N 30°11' W 093°19'0 0.0
2018-Jan-22 08:58N 30°11' W 093°19'0 0.0
2018-Jan-22 08:28N 30°11' W 093°19'0 0.0
2018-Jan-22 07:58N 30°11' W 093°19'0 0.0
2018-Jan-22 07:28N 30°11' W 093°19'0 0.0
2018-Jan-22 06:58N 30°11' W 093°19'0 0.0
2018-Jan-22 06:28N 30°11' W 093°19'0 0.0
2018-Jan-22 05:55N 30°11' W 093°19'0 0.0
2018-Jan-22 05:28N 30°11' W 093°19'0 0.0
2018-Jan-22 04:58N 30°11' W 093°19'0 0.0
2018-Jan-22 04:28N 30°11' W 093°19'0 0.0
2018-Jan-22 03:58N 30°11' W 093°19'0 0.0
2018-Jan-22 03:28N 30°11' W 093°19'0 0.0
2018-Jan-22 02:58N 30°11' W 093°19'0 0.0
2018-Jan-22 02:28N 30°11' W 093°19'0 0.0
2018-Jan-22 01:58N 30°11' W 093°19'0 0.0
2018-Jan-22 01:28N 30°11' W 093°19'0 0.0
2018-Jan-22 00:58N 30°11' W 093°19'0 0.0
2018-Jan-22 00:28N 30°11' W 093°19'0 0.0
2018-Jan-21 23:58N 30°11' W 093°19'0 0.0
2018-Jan-21 23:28N 30°11' W 093°19'0 0.0
2018-Jan-21 22:58N 30°11' W 093°19'0 0.0
2018-Jan-21 22:28N 30°11' W 093°19'0 0.0
2018-Jan-21 21:55N 30°11' W 093°19'0 0.0
2018-Jan-21 21:28N 30°11' W 093°19'0 0.0
2018-Jan-21 20:55N 30°11' W 093°19'0 0.0
2018-Jan-21 20:28N 30°11' W 093°19'0 0.0
2018-Jan-21 19:58N 30°11' W 093°19'0 0.0
2018-Jan-21 19:28N 30°11' W 093°19'0 0.0
2018-Jan-21 18:58N 30°11' W 093°19'0 0.0
2018-Jan-21 18:25N 30°11' W 093°19'0 0.0
2018-Jan-21 17:58N 30°11' W 093°19'0 0.0
2018-Jan-21 17:28N 30°11' W 093°19'0 0.0
2018-Jan-21 16:58N 30°11' W 093°19'0 0.0
2018-Jan-21 16:28N 30°11' W 093°19'0 0.0
2018-Jan-21 15:55N 30°11' W 093°19'0 0.0
2018-Jan-21 15:28N 30°11' W 093°19'0 0.0
2018-Jan-21 14:58N 30°11' W 093°19'0 0.3
2018-Jan-21 14:30N 30°11' W 093°19'3 6.2
2018-Jan-21 14:00N 30°08' W 093°20'2 3.9
2018-Jan-21 13:30N 30°06' W 093°20'0 0.0
2018-Jan-21 13:00N 30°06' W 093°20'0 0.0
2018-Jan-21 12:30N 30°06' W 093°20'0 0.0
2018-Jan-21 12:00N 30°06' W 093°20'0 0.0
2018-Jan-21 11:30N 30°06' W 093°20'0 0.0
2018-Jan-21 11:00N 30°06' W 093°20'0 0.0
2018-Jan-21 10:30N 30°06' W 093°20'0 0.0
2018-Jan-21 10:00N 30°06' W 093°20'0 0.0
2018-Jan-21 09:30N 30°06' W 093°20'0 0.0
2018-Jan-21 09:00N 30°06' W 093°20'0 0.0
2018-Jan-21 08:30N 30°06' W 093°20'0 0.0
2018-Jan-21 08:00N 30°06' W 093°20'1 1.2
2018-Jan-21 07:30N 30°06' W 093°20'2 4.8
2018-Jan-21 07:00N 30°04' W 093°21'0 0.5
2018-Jan-21 06:30N 30°04' W 093°22'0 0.1
2018-Jan-21 06:00N 30°04' W 093°21'0 0.0
2018-Jan-21 05:27N 30°04' W 093°21'0 0.0
2018-Jan-21 05:00N 30°04' W 093°21'0 0.0
2018-Jan-21 04:27N 30°04' W 093°21'0 0.0
2018-Jan-21 04:00N 30°04' W 093°21'0 0.0
2018-Jan-21 03:30N 30°04' W 093°21'0 0.0
2018-Jan-21 03:00N 30°04' W 093°21'0 0.0
2018-Jan-21 02:27N 30°04' W 093°21'0 0.0
2018-Jan-21 02:00N 30°04' W 093°21'0 0.0
2018-Jan-21 01:30N 30°04' W 093°21'0 0.3
2018-Jan-21 00:58N 30°04' W 093°21'0 0.0
2018-Jan-21 00:28N 30°04' W 093°21'0 0.0
2018-Jan-20 23:58N 30°04' W 093°21'0 0.0
2018-Jan-20 23:30N 30°04' W 093°21'0 0.3
2018-Jan-20 22:58N 30°04' W 093°21'1 1.6
2018-Jan-20 22:30N 30°04' W 093°22'2 3.9
2018-Jan-20 22:00N 30°04' W 093°25'2 4.6
2018-Jan-20 21:29N 30°04' W 093°27'81 1.7
2018-Jan-18 21:25N 29°32' W 094°53'3 7.1
2018-Jan-18 21:00N 29°34' W 094°55'4 7.1
2018-Jan-18 20:30N 29°37' W 094°57'4 7.9
2018-Jan-18 19:57N 29°41' W 094°59'  
Track history (hours):
 
Tides and Currents Weather Stations Pressure Air Temp Water Temp Dewpoint Dewpoint Depression Visibility Wind Speed Wind Dir Waves Ship Positions

Pedernales

Owner: Kirby Inland Marine, LP, Houston, TX. More information available from US FCC via Universal Licensing System and Coast Guard Vessel Documentation Center.

Last reported at 2018-Jan-24 05:28 UTC. Time now 2018-Jan-24 05:51 UTC.
Position N 30°04' W 093°21'.

Length 114 m; draft 2.9 m.

Type: . MMSI: 366996790.

Date/timePositionNaut miles runAvg speedWind from/ knotsBaromVisibWave heightAir tempDewpointWater temp
2018-Jan-24 05:28N 30°04' W 093°21'0 0.0
2018-Jan-24 04:58N 30°04' W 093°21'0 0.0
2018-Jan-24 04:28N 30°04' W 093°21'0 0.0
2018-Jan-24 03:52N 30°04' W 093°21'0 0.0
2018-Jan-24 03:28N 30°04' W 093°21'0 0.0
2018-Jan-24 02:55N 30°04' W 093°21'0 0.0
2018-Jan-24 02:28N 30°04' W 093°21'0 0.0
2018-Jan-24 01:55N 30°04' W 093°21'0 0.0
2018-Jan-24 01:28N 30°04' W 093°21'0 0.3
2018-Jan-24 00:59N 30°04' W 093°21'0 0.0
2018-Jan-24 00:29N 30°04' W 093°21'0 0.0
2018-Jan-23 23:59N 30°04' W 093°21'0 0.0
2018-Jan-23 23:29N 30°04' W 093°21'0 0.0
2018-Jan-23 23:00N 30°04' W 093°21'0 0.3
2018-Jan-23 22:31N 30°04' W 093°21'0 0.1
2018-Jan-23 22:00N 30°04' W 093°21'0 0.2
2018-Jan-23 21:30N 30°04' W 093°21'0 0.2
2018-Jan-23 21:00N 30°04' W 093°21'0 0.0
2018-Jan-23 20:30N 30°04' W 093°21'0 0.0
2018-Jan-23 20:00N 30°04' W 093°21'1 1.4
2018-Jan-23 19:30N 30°04' W 093°21'2 3.4
2018-Jan-23 19:00N 30°06' W 093°20'2 3.8
2018-Jan-23 18:30N 30°07' W 093°20'2 4.1
2018-Jan-23 18:00N 30°09' W 093°20'1 2.9
2018-Jan-23 17:30N 30°11' W 093°19'0 0.7
2018-Jan-23 16:59N 30°11' W 093°19'0 0.0
2018-Jan-23 16:29N 30°11' W 093°19'0 0.0
2018-Jan-23 15:59N 30°11' W 093°19'0 0.0
2018-Jan-23 15:29N 30°11' W 093°19'0 0.0
2018-Jan-23 14:59N 30°11' W 093°19'0 0.0
2018-Jan-23 14:29N 30°11' W 093°19'0 0.0
2018-Jan-23 13:59N 30°11' W 093°19'0 0.0
2018-Jan-23 13:29N 30°11' W 093°19'0 0.0
2018-Jan-23 12:59N 30°11' W 093°19'0 0.0
2018-Jan-23 12:29N 30°11' W 093°19'0 0.0
2018-Jan-23 11:59N 30°11' W 093°19'0 0.0
2018-Jan-23 11:26N 30°11' W 093°19'0 0.0
2018-Jan-23 10:59N 30°11' W 093°19'0 0.0
2018-Jan-23 10:29N 30°11' W 093°19'0 0.0
2018-Jan-23 09:59N 30°11' W 093°19'0 0.0
2018-Jan-23 09:29N 30°11' W 093°19'0 0.0
2018-Jan-23 08:56N 30°11' W 093°19'0 0.0
2018-Jan-23 08:29N 30°11' W 093°19'0 0.0
2018-Jan-23 07:59N 30°11' W 093°19'0 0.0
2018-Jan-23 07:29N 30°11' W 093°19'0 0.0
2018-Jan-23 06:59N 30°11' W 093°19'0 0.0
2018-Jan-23 06:29N 30°11' W 093°19'0 0.0
2018-Jan-23 05:58N 30°11' W 093°19'0 0.0
2018-Jan-23 05:25N 30°11' W 093°19'0 0.0
2018-Jan-23 04:58N 30°11' W 093°19'0 0.0
2018-Jan-23 04:25N 30°11' W 093°19'0 0.0
2018-Jan-23 03:55N 30°11' W 093°19'0 0.0
2018-Jan-23 03:28N 30°11' W 093°19'0 0.0
2018-Jan-23 02:55N 30°11' W 093°19'0 0.0
2018-Jan-23 02:28N 30°11' W 093°19'0 0.0
2018-Jan-23 01:58N 30°11' W 093°19'0 0.0
2018-Jan-23 01:28N 30°11' W 093°19'0 0.0
2018-Jan-23 00:58N 30°11' W 093°19'0 0.0
2018-Jan-23 00:28N 30°11' W 093°19'0 0.0
2018-Jan-23 00:01N 30°11' W 093°19'0 0.0
2018-Jan-22 23:31N 30°11' W 093°19'0 0.0
2018-Jan-22 23:01N 30°11' W 093°19'0 0.0
2018-Jan-22 22:30N 30°11' W 093°19'1 2.1
2018-Jan-22 22:01N 30°10' W 093°19'3 5.7
2018-Jan-22 21:31N 30°07' W 093°20'3 5.6
2018-Jan-22 21:01N 30°05' W 093°20'1 2.8
2018-Jan-22 20:31N 30°04' W 093°21'0 0.1
2018-Jan-22 20:01N 30°04' W 093°21'0 0.0
2018-Jan-22 19:31N 30°04' W 093°21'0 0.1
2018-Jan-22 19:00N 30°04' W 093°21'1 2.3
2018-Jan-22 18:30N 30°04' W 093°20'2 3.0
2018-Jan-22 18:00N 30°06' W 093°20'2 4.8
2018-Jan-22 17:31N 30°08' W 093°20'2 4.4
2018-Jan-22 17:01N 30°10' W 093°19'1 1.7
2018-Jan-22 16:25N 30°11' W 093°19'0 0.0
2018-Jan-22 15:58N 30°11' W 093°19'0 0.0
2018-Jan-22 15:28N 30°11' W 093°19'0 0.0
2018-Jan-22 14:58N 30°11' W 093°19'0 0.0
2018-Jan-22 14:28N 30°11' W 093°19'0 0.0
2018-Jan-22 13:58N 30°11' W 093°19'0 0.0
2018-Jan-22 13:28N 30°11' W 093°19'0 0.0
2018-Jan-22 12:58N 30°11' W 093°19'0 0.0
2018-Jan-22 12:28N 30°11' W 093°19'0 0.0
2018-Jan-22 11:58N 30°11' W 093°19'0 0.0
2018-Jan-22 11:28N 30°11' W 093°19'0 0.0
2018-Jan-22 10:55N 30°11' W 093°19'0 0.0
2018-Jan-22 10:25N 30°11' W 093°19'0 0.0
2018-Jan-22 09:58N 30°11' W 093°19'0 0.0
2018-Jan-22 09:28N 30°11' W 093°19'0 0.0
2018-Jan-22 08:58N 30°11' W 093°19'0 0.0
2018-Jan-22 08:28N 30°11' W 093°19'0 0.0
2018-Jan-22 07:58N 30°11' W 093°19'0 0.0
2018-Jan-22 07:28N 30°11' W 093°19'0 0.0
2018-Jan-22 06:58N 30°11' W 093°19'0 0.0
2018-Jan-22 06:28N 30°11' W 093°19'0 0.0
2018-Jan-22 05:55N 30°11' W 093°19'0 0.0
2018-Jan-22 05:28N 30°11' W 093°19'0 0.0
2018-Jan-22 04:58N 30°11' W 093°19'0 0.0
2018-Jan-22 04:28N 30°11' W 093°19'0 0.0
2018-Jan-22 03:58N 30°11' W 093°19'0 0.0
2018-Jan-22 03:28N 30°11' W 093°19'0 0.0
2018-Jan-22 02:58N 30°11' W 093°19'0 0.0
2018-Jan-22 02:28N 30°11' W 093°19'0 0.0
2018-Jan-22 01:58N 30°11' W 093°19'0 0.0
2018-Jan-22 01:28N 30°11' W 093°19'0 0.0
2018-Jan-22 00:58N 30°11' W 093°19'0 0.0
2018-Jan-22 00:28N 30°11' W 093°19'0 0.0
2018-Jan-21 23:58N 30°11' W 093°19'0 0.0
2018-Jan-21 23:28N 30°11' W 093°19'0 0.0
2018-Jan-21 22:58N 30°11' W 093°19'0 0.0
2018-Jan-21 22:28N 30°11' W 093°19'0 0.0
2018-Jan-21 21:55N 30°11' W 093°19'0 0.0
2018-Jan-21 21:28N 30°11' W 093°19'0 0.0
2018-Jan-21 20:55N 30°11' W 093°19'0 0.0
2018-Jan-21 20:28N 30°11' W 093°19'0 0.0
2018-Jan-21 19:58N 30°11' W 093°19'0 0.0
2018-Jan-21 19:28N 30°11' W 093°19'0 0.0
2018-Jan-21 18:58N 30°11' W 093°19'0 0.0
2018-Jan-21 18:25N 30°11' W 093°19'0 0.0
2018-Jan-21 17:58N 30°11' W 093°19'0 0.0
2018-Jan-21 17:28N 30°11' W 093°19'0 0.0
2018-Jan-21 16:58N 30°11' W 093°19'0 0.0
2018-Jan-21 16:28N 30°11' W 093°19'0 0.0
2018-Jan-21 15:55N 30°11' W 093°19'0 0.0
2018-Jan-21 15:28N 30°11' W 093°19'0 0.0
2018-Jan-21 14:58N 30°11' W 093°19'0 0.3
2018-Jan-21 14:30N 30°11' W 093°19'3 6.2
2018-Jan-21 14:00N 30°08' W 093°20'2 3.9
2018-Jan-21 13:30N 30°06' W 093°20'0 0.0
2018-Jan-21 13:00N 30°06' W 093°20'0 0.0
2018-Jan-21 12:30N 30°06' W 093°20'0 0.0
2018-Jan-21 12:00N 30°06' W 093°20'0 0.0
2018-Jan-21 11:30N 30°06' W 093°20'0 0.0
2018-Jan-21 11:00N 30°06' W 093°20'0 0.0
2018-Jan-21 10:30N 30°06' W 093°20'0 0.0
2018-Jan-21 10:00N 30°06' W 093°20'0 0.0
2018-Jan-21 09:30N 30°06' W 093°20'0 0.0
2018-Jan-21 09:00N 30°06' W 093°20'0 0.0
2018-Jan-21 08:30N 30°06' W 093°20'0 0.0
2018-Jan-21 08:00N 30°06' W 093°20'1 1.2
2018-Jan-21 07:30N 30°06' W 093°20'2 4.8
2018-Jan-21 07:00N 30°04' W 093°21'0 0.5
2018-Jan-21 06:30N 30°04' W 093°22'0 0.1
2018-Jan-21 06:00N 30°04' W 093°21'0 0.0
2018-Jan-21 05:27N 30°04' W 093°21'0 0.0
2018-Jan-21 05:00N 30°04' W 093°21'0 0.0
2018-Jan-21 04:27N 30°04' W 093°21'0 0.0
2018-Jan-21 04:00N 30°04' W 093°21'0 0.0
2018-Jan-21 03:30N 30°04' W 093°21'0 0.0
2018-Jan-21 03:00N 30°04' W 093°21'0 0.0
2018-Jan-21 02:27N 30°04' W 093°21'0 0.0
2018-Jan-21 02:00N 30°04' W 093°21'0 0.0
2018-Jan-21 01:30N 30°04' W 093°21'0 0.3
2018-Jan-21 00:58N 30°04' W 093°21'0 0.0
2018-Jan-21 00:28N 30°04' W 093°21'0 0.0
2018-Jan-20 23:58N 30°04' W 093°21'0 0.0
2018-Jan-20 23:30N 30°04' W 093°21'0 0.3
2018-Jan-20 22:58N 30°04' W 093°21'1 1.6
2018-Jan-20 22:30N 30°04' W 093°22'2 3.9
2018-Jan-20 22:00N 30°04' W 093°25'2 4.6
2018-Jan-20 21:29N 30°04' W 093°27'81 1.7
2018-Jan-18 21:25N 29°32' W 094°53'3 7.1
2018-Jan-18 21:00N 29°34' W 094°55'4 7.1
2018-Jan-18 20:30N 29°37' W 094°57'4 7.9
2018-Jan-18 19:57N 29°41' W 094°59'  

Dump ship's entire track history